Weather at Guaicanamar Airport

Public forecast

Using degrees Celsius for public forecast. Weather courtesy of forecast.io.

Closest aviation weather report (METAR) to Guaicanamar Airport

Closest report is Ignacio Agramonte International Airport, 31.5 nm (58.4 km) N. Retrieved 2021/06/23 19:50 UTC (1 hour ago):

MUCM 231950Z 05011KT 010V080 9000 BKN020 31/22 Q1016

Closest aviation forecast (TAF) to Guaicanamar Airport

Closest forecast is Ignacio Agramonte International Airport, 31.5 nm (58.4 km) N. Retrieved 2021/06/23 18:07 UTC (3 hours ago):

TAF MUCM 231700Z 2318/2418 05010KT 9000 BKN020 TEMPO 2318/2324 4000 TSRA SCT018CB BKN020 BECMG 2401/2403 SCT020